sensor_id;sensor_type;location;lat;lon;timestamp;P1;durP1;ratioP1;P2;durP2;ratioP2
43905;SDS011;29564;46.622;13.818;2024-03-08T00:00:40;3.72;;;2.20;;
43905;SDS011;29564;46.622;13.818;2024-03-08T00:01:43;5.68;;;2.03;;
43905;SDS011;29564;46.622;13.818;2024-03-08T00:02:48;3.70;;;1.95;;
43905;SDS011;29564;46.622;13.818;2024-03-08T00:03:59;4.53;;;2.20;;
43905;SDS011;29564;46.622;13.818;2024-03-08T00:05:09;2.78;;;1.92;;
43905;SDS011;29564;46.622;13.818;2024-03-08T00:06:12;4.75;;;2.03;;
43905;SDS011;29564;46.622;13.818;2024-03-08T00:07:20;3.00;;;1.83;;
43905;SDS011;29564;46.622;13.818;2024-03-08T00:08:31;2.70;;;1.67;;
43905;SDS011;29564;46.622;13.818;2024-03-08T00:09:36;3.58;;;2.05;;
43905;SDS011;29564;46.622;13.818;2024-03-08T00:10:46;2.97;;;1.80;;
43905;SDS011;29564;46.622;13.818;2024-03-08T00:11:48;4.00;;;1.92;;
43905;SDS011;29564;46.622;13.818;2024-03-08T00:12:53;2.80;;;1.70;;
43905;SDS011;29564;46.622;13.818;2024-03-08T00:13:58;4.95;;;2.20;;
43905;SDS011;29564;46.622;13.818;2024-03-08T00:15:00;3.97;;;1.88;;
43905;SDS011;29564;46.622;13.818;2024-03-08T00:16:05;4.97;;;2.42;;
43905;SDS011;29564;46.622;13.818;2024-03-08T00:17:11;3.97;;;1.98;;
43905;SDS011;29564;46.622;13.818;2024-03-08T00:18:19;3.00;;;1.77;;
43905;SDS011;29564;46.622;13.818;2024-03-08T00:19:24;4.07;;;2.53;;
43905;SDS011;29564;46.622;13.818;2024-03-08T00:20:34;4.65;;;1.70;;
43905;SDS011;29564;46.622;13.818;2024-03-08T00:21:36;2.75;;;1.77;;
43905;SDS011;29564;46.622;13.818;2024-03-08T00:22:45;4.35;;;2.17;;
43905;SDS011;29564;46.622;13.818;2024-03-08T00:23:52;6.00;;;2.15;;
43905;SDS011;29564;46.622;13.818;2024-03-08T00:25:06;4.55;;;1.80;;
43905;SDS011;29564;46.622;13.818;2024-03-08T00:26:18;3.22;;;1.75;;
43905;SDS011;29564;46.622;13.818;2024-03-08T00:27:28;3.30;;;1.80;;
43905;SDS011;29564;46.622;13.818;2024-03-08T00:28:41;3.90;;;2.13;;
43905;SDS011;29564;46.622;13.818;2024-03-08T00:29:52;5.40;;;2.42;;
43905;SDS011;29564;46.622;13.818;2024-03-08T00:31:00;6.43;;;1.92;;
43905;SDS011;29564;46.622;13.818;2024-03-08T00:32:05;3.53;;;1.70;;
43905;SDS011;29564;46.622;13.818;2024-03-08T00:33:08;3.42;;;2.13;;
43905;SDS011;29564;46.622;13.818;2024-03-08T00:34:10;3.45;;;2.08;;
43905;SDS011;29564;46.622;13.818;2024-03-08T00:35:15;4.15;;;1.98;;
43905;SDS011;29564;46.622;13.818;2024-03-08T00:36:16;3.28;;;2.03;;
43905;SDS011;29564;46.622;13.818;2024-03-08T00:37:18;5.60;;;2.95;;
43905;SDS011;29564;46.622;13.818;2024-03-08T00:38:26;5.75;;;2.40;;
43905;SDS011;29564;46.622;13.818;2024-03-08T00:39:35;4.20;;;2.08;;
43905;SDS011;29564;46.622;13.818;2024-03-08T00:40:43;5.40;;;2.03;;
43905;SDS011;29564;46.622;13.818;2024-03-08T00:41:50;4.72;;;2.17;;
43905;SDS011;29564;46.622;13.818;2024-03-08T00:42:55;4.50;;;1.98;;
43905;SDS011;29564;46.622;13.818;2024-03-08T00:43:57;4.63;;;1.77;;
43905;SDS011;29564;46.622;13.818;2024-03-08T00:44:59;4.65;;;2.63;;
43905;SDS011;29564;46.622;13.818;2024-03-08T00:46:04;5.38;;;2.28;;
43905;SDS011;29564;46.622;13.818;2024-03-08T00:47:06;8.68;;;2.78;;
43905;SDS011;29564;46.622;13.818;2024-03-08T00:48:08;5.20;;;2.00;;
43905;SDS011;29564;46.622;13.818;2024-03-08T00:49:14;2.30;;;1.58;;
43905;SDS011;29564;46.622;13.818;2024-03-08T00:50:17;4.68;;;2.22;;
43905;SDS011;29564;46.622;13.818;2024-03-08T00:51:19;2.88;;;1.90;;
43905;SDS011;29564;46.622;13.818;2024-03-08T00:52:21;4.22;;;2.33;;
43905;SDS011;29564;46.622;13.818;2024-03-08T00:53:27;3.75;;;2.28;;
43905;SDS011;29564;46.622;13.818;2024-03-08T00:54:32;4.65;;;2.22;;
43905;SDS011;29564;46.622;13.818;2024-03-08T00:55:34;4.60;;;2.08;;
43905;SDS011;29564;46.622;13.818;2024-03-08T00:56:48;5.90;;;2.17;;
43905;SDS011;29564;46.622;13.818;2024-03-08T00:57:55;3.35;;;1.73;;
43905;SDS011;29564;46.622;13.818;2024-03-08T00:58:57;4.78;;;2.00;;
43905;SDS011;29564;46.622;13.818;2024-03-08T01:00:02;4.35;;;2.25;;
43905;SDS011;29564;46.622;13.818;2024-03-08T01:01:07;4.82;;;2.55;;
43905;SDS011;29564;46.622;13.818;2024-03-08T01:02:10;4.38;;;2.45;;
43905;SDS011;29564;46.622;13.818;2024-03-08T01:03:12;4.75;;;1.88;;
43905;SDS011;29564;46.622;13.818;2024-03-08T01:04:14;4.82;;;2.20;;
43905;SDS011;29564;46.622;13.818;2024-03-08T01:05:22;5.65;;;2.53;;
43905;SDS011;29564;46.622;13.818;2024-03-08T01:06:25;4.40;;;2.17;;
43905;SDS011;29564;46.622;13.818;2024-03-08T01:07:27;3.95;;;1.73;;
43905;SDS011;29564;46.622;13.818;2024-03-08T01:08:32;4.65;;;2.25;;
43905;SDS011;29564;46.622;13.818;2024-03-08T01:09:37;4.97;;;2.20;;
43905;SDS011;29564;46.622;13.818;2024-03-08T01:10:41;4.22;;;1.80;;
43905;SDS011;29564;46.622;13.818;2024-03-08T01:11:52;4.30;;;2.30;;
43905;SDS011;29564;46.622;13.818;2024-03-08T01:13:00;4.40;;;2.08;;
43905;SDS011;29564;46.622;13.818;2024-03-08T01:14:07;4.63;;;1.75;;
43905;SDS011;29564;46.622;13.818;2024-03-08T01:16:16;3.50;;;1.35;;
43905;SDS011;29564;46.622;13.818;2024-03-08T01:17:18;4.03;;;1.73;;
43905;SDS011;29564;46.622;13.818;2024-03-08T01:18:23;5.93;;;3.35;;
43905;SDS011;29564;46.622;13.818;2024-03-08T01:19:28;6.28;;;2.28;;
43905;SDS011;29564;46.622;13.818;2024-03-08T01:20:33;7.47;;;2.92;;
43905;SDS011;29564;46.622;13.818;2024-03-08T01:21:35;3.55;;;1.73;;
43905;SDS011;29564;46.622;13.818;2024-03-08T01:22:37;5.10;;;2.28;;
43905;SDS011;29564;46.622;13.818;2024-03-08T01:23:39;5.18;;;2.38;;
43905;SDS011;29564;46.622;13.818;2024-03-08T01:24:43;4.80;;;2.35;;
43905;SDS011;29564;46.622;13.818;2024-03-08T01:25:48;5.72;;;2.30;;
43905;SDS011;29564;46.622;13.818;2024-03-08T01:26:52;5.80;;;2.45;;
43905;SDS011;29564;46.622;13.818;2024-03-08T01:27:54;5.70;;;2.70;;
43905;SDS011;29564;46.622;13.818;2024-03-08T01:28:59;4.85;;;2.25;;
43905;SDS011;29564;46.622;13.818;2024-03-08T01:30:03;5.40;;;1.70;;
43905;SDS011;29564;46.622;13.818;2024-03-08T01:31:08;5.13;;;2.17;;
43905;SDS011;29564;46.622;13.818;2024-03-08T01:32:17;5.30;;;2.55;;
43905;SDS011;29564;46.622;13.818;2024-03-08T01:33:26;4.28;;;2.28;;
43905;SDS011;29564;46.622;13.818;2024-03-08T01:34:33;4.38;;;2.13;;
43905;SDS011;29564;46.622;13.818;2024-03-08T01:35:44;7.30;;;2.22;;
43905;SDS011;29564;46.622;13.818;2024-03-08T01:36:54;3.92;;;1.92;;
43905;SDS011;29564;46.622;13.818;2024-03-08T01:37:59;4.53;;;1.85;;
43905;SDS011;29564;46.622;13.818;2024-03-08T01:39:01;6.00;;;3.08;;
43905;SDS011;29564;46.622;13.818;2024-03-08T01:40:25;7.50;;;2.72;;
43905;SDS011;29564;46.622;13.818;2024-03-08T01:41:29;4.20;;;1.77;;
43905;SDS011;29564;46.622;13.818;2024-03-08T01:42:34;4.68;;;2.47;;
43905;SDS011;29564;46.622;13.818;2024-03-08T01:43:41;5.75;;;1.63;;
43905;SDS011;29564;46.622;13.818;2024-03-08T01:44:51;3.95;;;2.40;;
43905;SDS011;29564;46.622;13.818;2024-03-08T01:46:02;9.52;;;2.08;;
43905;SDS011;29564;46.622;13.818;2024-03-08T01:47:10;5.15;;;2.60;;
43905;SDS011;29564;46.622;13.818;2024-03-08T01:48:17;4.03;;;2.03;;
43905;SDS011;29564;46.622;13.818;2024-03-08T01:49:28;3.38;;;2.10;;
43905;SDS011;29564;46.622;13.818;2024-03-08T01:50:34;3.55;;;2.35;;
43905;SDS011;29564;46.622;13.818;2024-03-08T01:51:48;5.60;;;2.25;;
43905;SDS011;29564;46.622;13.818;2024-03-08T01:52:56;6.25;;;1.85;;
43905;SDS011;29564;46.622;13.818;2024-03-08T01:54:12;6.10;;;1.92;;
43905;SDS011;29564;46.622;13.818;2024-03-08T01:55:34;5.88;;;1.98;;
43905;SDS011;29564;46.622;13.818;2024-03-08T01:56:47;4.30;;;1.67;;
43905;SDS011;29564;46.622;13.818;2024-03-08T01:58:00;4.13;;;2.35;;
43905;SDS011;29564;46.622;13.818;2024-03-08T01:59:10;3.92;;;2.25;;
43905;SDS011;29564;46.622;13.818;2024-03-08T02:00:32;3.25;;;1.70;;
43905;SDS011;29564;46.622;13.818;2024-03-08T02:01:35;6.78;;;2.33;;
43905;SDS011;29564;46.622;13.818;2024-03-08T02:02:39;3.92;;;2.80;;
43905;SDS011;29564;46.622;13.818;2024-03-08T02:03:45;5.68;;;2.63;;
43905;SDS011;29564;46.622;13.818;2024-03-08T02:04:47;5.60;;;2.78;;
43905;SDS011;29564;46.622;13.818;2024-03-08T02:05:52;5.20;;;2.63;;
43905;SDS011;29564;46.622;13.818;2024-03-08T02:06:55;5.50;;;2.80;;
43905;SDS011;29564;46.622;13.818;2024-03-08T02:08:00;5.25;;;2.38;;
43905;SDS011;29564;46.622;13.818;2024-03-08T02:09:06;3.22;;;2.40;;
43905;SDS011;29564;46.622;13.818;2024-03-08T02:10:11;5.30;;;2.55;;
43905;SDS011;29564;46.622;13.818;2024-03-08T02:11:31;5.47;;;2.65;;
43905;SDS011;29564;46.622;13.818;2024-03-08T02:12:42;6.38;;;2.17;;
43905;SDS011;29564;46.622;13.818;2024-03-08T02:13:44;5.93;;;2.80;;
43905;SDS011;29564;46.622;13.818;2024-03-08T02:14:46;5.50;;;2.63;;
43905;SDS011;29564;46.622;13.818;2024-03-08T02:16:09;4.95;;;2.42;;
43905;SDS011;29564;46.622;13.818;2024-03-08T02:17:14;5.60;;;2.13;;
43905;SDS011;29564;46.622;13.818;2024-03-08T02:18:28;2.97;;;1.63;;
43905;SDS011;29564;46.622;13.818;2024-03-08T02:19:31;5.07;;;2.22;;
43905;SDS011;29564;46.622;13.818;2024-03-08T02:20:36;5.78;;;2.03;;
43905;SDS011;29564;46.622;13.818;2024-03-08T02:21:37;5.43;;;2.47;;
43905;SDS011;29564;46.622;13.818;2024-03-08T02:22:39;7.28;;;2.78;;
43905;SDS011;29564;46.622;13.818;2024-03-08T02:23:41;6.40;;;2.70;;
43905;SDS011;29564;46.622;13.818;2024-03-08T02:25:06;4.05;;;2.60;;
43905;SDS011;29564;46.622;13.818;2024-03-08T02:26:19;5.75;;;2.17;;
43905;SDS011;29564;46.622;13.818;2024-03-08T02:27:29;4.70;;;2.88;;
43905;SDS011;29564;46.622;13.818;2024-03-08T02:28:51;5.13;;;1.95;;
43905;SDS011;29564;46.622;13.818;2024-03-08T02:30:11;5.55;;;1.98;;
43905;SDS011;29564;46.622;13.818;2024-03-08T02:31:26;3.47;;;1.58;;
43905;SDS011;29564;46.622;13.818;2024-03-08T02:32:45;4.63;;;1.73;;
43905;SDS011;29564;46.622;13.818;2024-03-08T02:34:04;9.25;;;2.03;;
43905;SDS011;29564;46.622;13.818;2024-03-08T02:35:15;5.50;;;2.20;;
43905;SDS011;29564;46.622;13.818;2024-03-08T02:36:17;6.60;;;2.45;;
43905;SDS011;29564;46.622;13.818;2024-03-08T02:37:22;5.95;;;3.08;;
43905;SDS011;29564;46.622;13.818;2024-03-08T02:39:28;3.80;;;2.20;;
43905;SDS011;29564;46.622;13.818;2024-03-08T02:40:36;4.95;;;2.17;;
43905;SDS011;29564;46.622;13.818;2024-03-08T02:41:41;4.55;;;2.38;;
43905;SDS011;29564;46.622;13.818;2024-03-08T02:42:51;6.47;;;2.60;;
43905;SDS011;29564;46.622;13.818;2024-03-08T02:44:01;5.75;;;2.35;;
43905;SDS011;29564;46.622;13.818;2024-03-08T02:45:08;4.38;;;2.40;;
43905;SDS011;29564;46.622;13.818;2024-03-08T02:46:19;4.63;;;2.80;;
43905;SDS011;29564;46.622;13.818;2024-03-08T02:47:33;8.70;;;2.50;;
43905;SDS011;29564;46.622;13.818;2024-03-08T02:48:44;3.55;;;2.05;;
43905;SDS011;29564;46.622;13.818;2024-03-08T02:49:47;6.13;;;2.42;;
43905;SDS011;29564;46.622;13.818;2024-03-08T02:50:50;4.85;;;3.05;;
43905;SDS011;29564;46.622;13.818;2024-03-08T02:51:53;6.15;;;2.60;;
43905;SDS011;29564;46.622;13.818;2024-03-08T02:52:56;7.85;;;2.15;;
43905;SDS011;29564;46.622;13.818;2024-03-08T02:54:01;5.93;;;2.40;;
43905;SDS011;29564;46.622;13.818;2024-03-08T02:55:04;5.57;;;3.08;;
43905;SDS011;29564;46.622;13.818;2024-03-08T02:56:07;5.13;;;2.78;;
43905;SDS011;29564;46.622;13.818;2024-03-08T02:58:15;6.07;;;2.63;;
43905;SDS011;29564;46.622;13.818;2024-03-08T02:59:20;5.00;;;2.67;;
43905;SDS011;29564;46.622;13.818;2024-03-08T03:00:27;6.93;;;3.10;;
43905;SDS011;29564;46.622;13.818;2024-03-08T03:01:31;4.70;;;2.58;;
43905;SDS011;29564;46.622;13.818;2024-03-08T03:02:33;6.13;;;2.63;;
43905;SDS011;29564;46.622;13.818;2024-03-08T03:03:35;5.38;;;2.80;;
43905;SDS011;29564;46.622;13.818;2024-03-08T03:04:39;7.30;;;2.30;;
43905;SDS011;29564;46.622;13.818;2024-03-08T03:05:41;5.63;;;2.33;;
43905;SDS011;29564;46.622;13.818;2024-03-08T03:06:43;4.85;;;2.63;;
43905;SDS011;29564;46.622;13.818;2024-03-08T03:07:48;11.02;;;2.80;;
43905;SDS011;29564;46.622;13.818;2024-03-08T03:08:53;4.72;;;2.33;;
43905;SDS011;29564;46.622;13.818;2024-03-08T03:09:58;5.28;;;2.53;;
43905;SDS011;29564;46.622;13.818;2024-03-08T03:11:06;6.15;;;2.70;;
43905;SDS011;29564;46.622;13.818;2024-03-08T03:12:23;6.93;;;3.30;;
43905;SDS011;29564;46.622;13.818;2024-03-08T03:13:33;5.00;;;2.05;;
43905;SDS011;29564;46.622;13.818;2024-03-08T03:15:46;9.10;;;2.55;;
43905;SDS011;29564;46.622;13.818;2024-03-08T03:16:52;3.58;;;2.30;;
43905;SDS011;29564;46.622;13.818;2024-03-08T03:18:05;5.00;;;2.28;;
43905;SDS011;29564;46.622;13.818;2024-03-08T03:19:17;8.20;;;3.03;;
43905;SDS011;29564;46.622;13.818;2024-03-08T03:20:29;5.38;;;2.42;;
43905;SDS011;29564;46.622;13.818;2024-03-08T03:21:44;5.80;;;3.00;;
43905;SDS011;29564;46.622;13.818;2024-03-08T03:22:46;7.88;;;3.33;;
43905;SDS011;29564;46.622;13.818;2024-03-08T03:23:57;4.40;;;2.78;;
43905;SDS011;29564;46.622;13.818;2024-03-08T03:25:11;4.93;;;2.42;;
43905;SDS011;29564;46.622;13.818;2024-03-08T03:26:28;3.88;;;2.03;;
43905;SDS011;29564;46.622;13.818;2024-03-08T03:27:41;4.82;;;2.45;;
43905;SDS011;29564;46.622;13.818;2024-03-08T03:28:59;5.80;;;3.05;;
43905;SDS011;29564;46.622;13.818;2024-03-08T03:30:31;5.78;;;2.75;;
43905;SDS011;29564;46.622;13.818;2024-03-08T03:31:38;7.05;;;2.50;;
43905;SDS011;29564;46.622;13.818;2024-03-08T03:32:41;4.97;;;2.35;;
43905;SDS011;29564;46.622;13.818;2024-03-08T03:33:53;5.53;;;2.88;;
43905;SDS011;29564;46.622;13.818;2024-03-08T03:35:05;7.43;;;3.42;;
43905;SDS011;29564;46.622;13.818;2024-03-08T03:36:21;4.28;;;2.58;;
43905;SDS011;29564;46.622;13.818;2024-03-08T03:37:31;5.72;;;2.95;;
43905;SDS011;29564;46.622;13.818;2024-03-08T03:38:39;5.65;;;2.88;;
43905;SDS011;29564;46.622;13.818;2024-03-08T03:39:49;7.03;;;3.00;;
43905;SDS011;29564;46.622;13.818;2024-03-08T03:40:53;3.42;;;2.60;;
43905;SDS011;29564;46.622;13.818;2024-03-08T03:42:00;6.07;;;2.58;;
43905;SDS011;29564;46.622;13.818;2024-03-08T03:43:05;8.35;;;3.38;;
43905;SDS011;29564;46.622;13.818;2024-03-08T03:44:08;6.60;;;2.75;;
43905;SDS011;29564;46.622;13.818;2024-03-08T03:45:10;5.45;;;2.78;;
43905;SDS011;29564;46.622;13.818;2024-03-08T03:46:12;7.55;;;3.40;;
43905;SDS011;29564;46.622;13.818;2024-03-08T03:47:14;8.25;;;3.35;;
43905;SDS011;29564;46.622;13.818;2024-03-08T03:48:23;6.10;;;2.42;;
43905;SDS011;29564;46.622;13.818;2024-03-08T03:49:28;5.95;;;2.70;;
43905;SDS011;29564;46.622;13.818;2024-03-08T03:50:30;4.97;;;3.03;;
43905;SDS011;29564;46.622;13.818;2024-03-08T03:51:37;4.28;;;2.00;;
43905;SDS011;29564;46.622;13.818;2024-03-08T03:52:39;5.97;;;2.88;;
43905;SDS011;29564;46.622;13.818;2024-03-08T03:53:43;5.55;;;2.63;;
43905;SDS011;29564;46.622;13.818;2024-03-08T03:54:44;5.05;;;2.17;;
43905;SDS011;29564;46.622;13.818;2024-03-08T03:56:58;6.88;;;2.40;;
43905;SDS011;29564;46.622;13.818;2024-03-08T03:58:04;5.28;;;3.35;;
43905;SDS011;29564;46.622;13.818;2024-03-08T03:59:06;4.75;;;2.67;;
43905;SDS011;29564;46.622;13.818;2024-03-08T04:00:08;3.65;;;2.47;;
43905;SDS011;29564;46.622;13.818;2024-03-08T04:01:15;7.75;;;2.90;;
43905;SDS011;29564;46.622;13.818;2024-03-08T04:02:17;5.72;;;2.38;;
43905;SDS011;29564;46.622;13.818;2024-03-08T04:03:20;3.15;;;1.65;;
43905;SDS011;29564;46.622;13.818;2024-03-08T04:04:22;4.88;;;2.58;;
43905;SDS011;29564;46.622;13.818;2024-03-08T04:05:25;4.07;;;2.28;;
43905;SDS011;29564;46.622;13.818;2024-03-08T04:06:29;6.15;;;2.78;;
43905;SDS011;29564;46.622;13.818;2024-03-08T04:07:34;7.70;;;3.75;;
43905;SDS011;29564;46.622;13.818;2024-03-08T04:08:39;6.72;;;3.30;;
43905;SDS011;29564;46.622;13.818;2024-03-08T04:09:47;4.72;;;2.45;;
43905;SDS011;29564;46.622;13.818;2024-03-08T04:10:51;6.88;;;3.22;;
43905;SDS011;29564;46.622;13.818;2024-03-08T04:11:54;7.00;;;2.70;;
43905;SDS011;29564;46.622;13.818;2024-03-08T04:12:57;5.28;;;3.28;;
43905;SDS011;29564;46.622;13.818;2024-03-08T04:15:08;5.22;;;2.40;;
43905;SDS011;29564;46.622;13.818;2024-03-08T04:16:19;6.90;;;2.75;;
43905;SDS011;29564;46.622;13.818;2024-03-08T04:17:26;4.75;;;2.97;;
43905;SDS011;29564;46.622;13.818;2024-03-08T04:18:39;5.65;;;2.65;;
43905;SDS011;29564;46.622;13.818;2024-03-08T04:19:47;8.80;;;3.05;;
43905;SDS011;29564;46.622;13.818;2024-03-08T04:20:57;7.57;;;2.70;;
43905;SDS011;29564;46.622;13.818;2024-03-08T04:22:07;4.80;;;2.53;;
43905;SDS011;29564;46.622;13.818;2024-03-08T04:23:09;5.45;;;2.58;;
43905;SDS011;29564;46.622;13.818;2024-03-08T04:24:17;5.15;;;2.72;;
43905;SDS011;29564;46.622;13.818;2024-03-08T04:25:27;7.18;;;3.33;;
43905;SDS011;29564;46.622;13.818;2024-03-08T04:27:39;3.60;;;2.60;;
43905;SDS011;29564;46.622;13.818;2024-03-08T04:28:50;6.85;;;3.05;;
43905;SDS011;29564;46.622;13.818;2024-03-08T04:29:54;4.53;;;2.78;;
43905;SDS011;29564;46.622;13.818;2024-03-08T04:30:58;7.03;;;2.97;;
43905;SDS011;29564;46.622;13.818;2024-03-08T04:32:04;5.28;;;3.15;;
43905;SDS011;29564;46.622;13.818;2024-03-08T04:33:07;3.85;;;2.55;;
43905;SDS011;29564;46.622;13.818;2024-03-08T04:34:09;7.00;;;3.28;;
43905;SDS011;29564;46.622;13.818;2024-03-08T04:35:16;5.68;;;3.20;;
43905;SDS011;29564;46.622;13.818;2024-03-08T04:36:32;7.43;;;3.05;;
43905;SDS011;29564;46.622;13.818;2024-03-08T04:37:42;6.10;;;2.63;;
43905;SDS011;29564;46.622;13.818;2024-03-08T04:38:46;5.35;;;2.83;;
43905;SDS011;29564;46.622;13.818;2024-03-08T04:39:48;6.35;;;2.83;;
43905;SDS011;29564;46.622;13.818;2024-03-08T04:40:50;6.80;;;2.28;;
43905;SDS011;29564;46.622;13.818;2024-03-08T04:41:52;4.25;;;2.67;;
43905;SDS011;29564;46.622;13.818;2024-03-08T04:42:58;7.13;;;2.97;;
43905;SDS011;29564;46.622;13.818;2024-03-08T04:44:03;5.45;;;2.63;;
43905;SDS011;29564;46.622;13.818;2024-03-08T04:45:05;5.88;;;3.17;;
43905;SDS011;29564;46.622;13.818;2024-03-08T04:46:13;7.43;;;2.75;;
43905;SDS011;29564;46.622;13.818;2024-03-08T04:47:32;6.45;;;2.97;;
43905;SDS011;29564;46.622;13.818;2024-03-08T04:48:45;8.05;;;3.08;;
43905;SDS011;29564;46.622;13.818;2024-03-08T04:49:50;5.07;;;2.90;;
43905;SDS011;29564;46.622;13.818;2024-03-08T04:51:01;4.80;;;2.85;;
43905;SDS011;29564;46.622;13.818;2024-03-08T04:52:04;6.10;;;2.72;;
43905;SDS011;29564;46.622;13.818;2024-03-08T04:53:10;7.82;;;2.92;;
43905;SDS011;29564;46.622;13.818;2024-03-08T04:54:15;7.13;;;2.85;;
43905;SDS011;29564;46.622;13.818;2024-03-08T04:55:17;4.78;;;2.35;;
43905;SDS011;29564;46.622;13.818;2024-03-08T04:57:23;3.50;;;2.05;;
43905;SDS011;29564;46.622;13.818;2024-03-08T04:58:26;5.40;;;2.53;;
43905;SDS011;29564;46.622;13.818;2024-03-08T04:59:31;5.20;;;2.72;;
43905;SDS011;29564;46.622;13.818;2024-03-08T05:00:33;3.88;;;2.60;;
43905;SDS011;29564;46.622;13.818;2024-03-08T05:01:36;6.22;;;3.00;;
43905;SDS011;29564;46.622;13.818;2024-03-08T05:02:41;5.97;;;2.22;;
43905;SDS011;29564;46.622;13.818;2024-03-08T05:04:53;5.07;;;2.85;;
43905;SDS011;29564;46.622;13.818;2024-03-08T05:06:03;5.50;;;3.35;;
43905;SDS011;29564;46.622;13.818;2024-03-08T05:07:08;6.05;;;3.08;;
43905;SDS011;29564;46.622;13.818;2024-03-08T05:08:13;5.22;;;2.88;;
43905;SDS011;29564;46.622;13.818;2024-03-08T05:09:16;6.68;;;2.55;;
43905;SDS011;29564;46.622;13.818;2024-03-08T05:10:25;6.47;;;2.80;;
43905;SDS011;29564;46.622;13.818;2024-03-08T05:11:45;4.43;;;2.67;;
43905;SDS011;29564;46.622;13.818;2024-03-08T05:12:47;7.55;;;3.35;;
43905;SDS011;29564;46.622;13.818;2024-03-08T05:14:00;8.65;;;3.60;;
43905;SDS011;29564;46.622;13.818;2024-03-08T05:15:16;7.70;;;2.95;;
43905;SDS011;29564;46.622;13.818;2024-03-08T05:16:24;6.45;;;3.15;;
43905;SDS011;29564;46.622;13.818;2024-03-08T05:17:37;7.10;;;3.70;;
43905;SDS011;29564;46.622;13.818;2024-03-08T05:18:48;7.75;;;3.17;;
43905;SDS011;29564;46.622;13.818;2024-03-08T05:20:03;6.78;;;3.38;;
43905;SDS011;29564;46.622;13.818;2024-03-08T05:21:26;6.38;;;2.95;;
43905;SDS011;29564;46.622;13.818;2024-03-08T05:22:43;7.05;;;3.13;;
43905;SDS011;29564;46.622;13.818;2024-03-08T05:23:50;6.57;;;3.08;;
43905;SDS011;29564;46.622;13.818;2024-03-08T05:24:52;6.57;;;2.88;;
43905;SDS011;29564;46.622;13.818;2024-03-08T05:27:13;5.07;;;2.97;;
43905;SDS011;29564;46.622;13.818;2024-03-08T05:28:21;5.95;;;2.95;;
43905;SDS011;29564;46.622;13.818;2024-03-08T05:29:32;4.70;;;2.13;;
43905;SDS011;29564;46.622;13.818;2024-03-08T05:30:34;6.40;;;3.45;;
43905;SDS011;29564;46.622;13.818;2024-03-08T05:31:46;4.57;;;2.85;;
43905;SDS011;29564;46.622;13.818;2024-03-08T05:32:51;8.88;;;3.65;;
43905;SDS011;29564;46.622;13.818;2024-03-08T05:33:56;13.00;;;4.65;;
43905;SDS011;29564;46.622;13.818;2024-03-08T05:34:58;7.93;;;3.13;;
43905;SDS011;29564;46.622;13.818;2024-03-08T05:36:03;6.70;;;2.75;;
43905;SDS011;29564;46.622;13.818;2024-03-08T05:37:04;7.82;;;3.20;;
43905;SDS011;29564;46.622;13.818;2024-03-08T05:38:08;5.70;;;2.90;;
43905;SDS011;29564;46.622;13.818;2024-03-08T05:39:10;6.45;;;3.92;;
43905;SDS011;29564;46.622;13.818;2024-03-08T05:40:15;6.72;;;3.10;;
43905;SDS011;29564;46.622;13.818;2024-03-08T05:41:17;6.78;;;3.17;;
43905;SDS011;29564;46.622;13.818;2024-03-08T05:42:22;9.18;;;4.10;;
43905;SDS011;29564;46.622;13.818;2024-03-08T05:43:24;8.65;;;3.15;;
43905;SDS011;29564;46.622;13.818;2024-03-08T05:44:26;8.60;;;3.60;;
43905;SDS011;29564;46.622;13.818;2024-03-08T05:45:29;9.40;;;3.92;;
43905;SDS011;29564;46.622;13.818;2024-03-08T05:46:31;6.15;;;3.90;;
43905;SDS011;29564;46.622;13.818;2024-03-08T05:47:35;8.50;;;3.95;;
43905;SDS011;29564;46.622;13.818;2024-03-08T05:48:37;8.18;;;3.40;;
43905;SDS011;29564;46.622;13.818;2024-03-08T05:49:39;9.07;;;3.55;;
43905;SDS011;29564;46.622;13.818;2024-03-08T05:50:43;8.00;;;4.22;;
43905;SDS011;29564;46.622;13.818;2024-03-08T05:51:50;10.57;;;3.83;;
43905;SDS011;29564;46.622;13.818;2024-03-08T05:52:54;9.90;;;4.20;;
43905;SDS011;29564;46.622;13.818;2024-03-08T05:53:56;7.95;;;2.83;;
43905;SDS011;29564;46.622;13.818;2024-03-08T05:54:59;10.73;;;4.13;;
43905;SDS011;29564;46.622;13.818;2024-03-08T05:56:01;10.32;;;4.35;;
43905;SDS011;29564;46.622;13.818;2024-03-08T05:57:04;11.38;;;4.07;;
43905;SDS011;29564;46.622;13.818;2024-03-08T05:58:07;8.93;;;3.40;;
43905;SDS011;29564;46.622;13.818;2024-03-08T05:59:09;7.90;;;3.95;;
43905;SDS011;29564;46.622;13.818;2024-03-08T06:00:19;8.38;;;3.97;;
43905;SDS011;29564;46.622;13.818;2024-03-08T06:01:30;8.90;;;3.42;;
43905;SDS011;29564;46.622;13.818;2024-03-08T06:02:35;11.13;;;4.25;;
43905;SDS011;29564;46.622;13.818;2024-03-08T06:03:41;9.35;;;4.25;;
43905;SDS011;29564;46.622;13.818;2024-03-08T06:04:51;5.82;;;2.97;;
43905;SDS011;29564;46.622;13.818;2024-03-08T06:05:56;7.03;;;4.03;;
43905;SDS011;29564;46.622;13.818;2024-03-08T06:07:02;9.10;;;3.90;;
43905;SDS011;29564;46.622;13.818;2024-03-08T06:08:07;9.38;;;3.85;;
43905;SDS011;29564;46.622;13.818;2024-03-08T06:09:12;7.57;;;3.67;;
43905;SDS011;29564;46.622;13.818;2024-03-08T06:10:16;8.68;;;3.80;;
43905;SDS011;29564;46.622;13.818;2024-03-08T06:11:18;8.55;;;3.55;;
43905;SDS011;29564;46.622;13.818;2024-03-08T06:12:21;7.63;;;3.22;;
43905;SDS011;29564;46.622;13.818;2024-03-08T06:13:23;7.70;;;3.33;;
43905;SDS011;29564;46.622;13.818;2024-03-08T06:14:24;5.05;;;2.95;;
43905;SDS011;29564;46.622;13.818;2024-03-08T06:15:34;6.63;;;3.17;;
43905;SDS011;29564;46.622;13.818;2024-03-08T06:16:39;5.95;;;2.80;;
43905;SDS011;29564;46.622;13.818;2024-03-08T06:17:44;7.05;;;3.42;;
43905;SDS011;29564;46.622;13.818;2024-03-08T06:18:49;11.45;;;3.40;;
43905;SDS011;29564;46.622;13.818;2024-03-08T06:19:51;8.48;;;4.25;;
43905;SDS011;29564;46.622;13.818;2024-03-08T06:20:53;7.97;;;4.43;;
43905;SDS011;29564;46.622;13.818;2024-03-08T06:21:59;8.52;;;3.17;;
43905;SDS011;29564;46.622;13.818;2024-03-08T06:23:06;12.05;;;3.85;;
43905;SDS011;29564;46.622;13.818;2024-03-08T06:24:13;8.00;;;3.63;;
43905;SDS011;29564;46.622;13.818;2024-03-08T06:25:18;9.00;;;4.32;;
43905;SDS011;29564;46.622;13.818;2024-03-08T06:26:21;8.65;;;3.75;;
43905;SDS011;29564;46.622;13.818;2024-03-08T06:27:23;6.55;;;3.42;;
43905;SDS011;29564;46.622;13.818;2024-03-08T06:28:28;7.32;;;3.28;;
43905;SDS011;29564;46.622;13.818;2024-03-08T06:29:30;9.25;;;3.83;;
43905;SDS011;29564;46.622;13.818;2024-03-08T06:30:32;6.20;;;3.35;;
43905;SDS011;29564;46.622;13.818;2024-03-08T06:31:35;5.43;;;2.88;;
43905;SDS011;29564;46.622;13.818;2024-03-08T06:32:39;14.75;;;3.38;;
43905;SDS011;29564;46.622;13.818;2024-03-08T06:33:43;8.23;;;3.55;;
43905;SDS011;29564;46.622;13.818;2024-03-08T06:34:48;7.13;;;2.55;;
43905;SDS011;29564;46.622;13.818;2024-03-08T06:35:50;13.52;;;4.97;;
43905;SDS011;29564;46.622;13.818;2024-03-08T06:36:52;7.70;;;4.25;;
43905;SDS011;29564;46.622;13.818;2024-03-08T06:38:01;8.90;;;4.32;;
43905;SDS011;29564;46.622;13.818;2024-03-08T06:39:03;8.55;;;3.83;;
43905;SDS011;29564;46.622;13.818;2024-03-08T06:40:12;8.07;;;3.95;;
43905;SDS011;29564;46.622;13.818;2024-03-08T06:41:17;4.55;;;2.58;;
43905;SDS011;29564;46.622;13.818;2024-03-08T06:42:24;7.32;;;3.50;;
43905;SDS011;29564;46.622;13.818;2024-03-08T06:43:35;9.77;;;4.00;;
43905;SDS011;29564;46.622;13.818;2024-03-08T06:45:02;6.78;;;3.17;;
43905;SDS011;29564;46.622;13.818;2024-03-08T06:46:19;7.68;;;3.28;;